createdAt,value
2019-03-16T00:02:23.762Z,10.53
2019-03-16T00:04:53.005Z,10.50
2019-03-16T00:07:32.418Z,10.40
2019-03-16T00:09:53.254Z,10.32
2019-03-16T00:12:22.654Z,10.27
2019-03-16T00:14:51.908Z,10.30
2019-03-16T00:17:23.663Z,10.33
2019-03-16T00:19:52.127Z,10.35
2019-03-16T00:22:21.354Z,10.35
2019-03-16T00:24:50.614Z,10.35
2019-03-16T00:27:19.863Z,10.36
2019-03-16T00:29:49.133Z,10.38
2019-03-16T00:32:18.390Z,10.39
2019-03-16T00:34:47.726Z,10.35
2019-03-16T00:37:16.995Z,10.37
2019-03-16T00:39:46.235Z,10.38
2019-03-16T00:42:15.514Z,10.41
2019-03-16T00:44:44.748Z,10.33
2019-03-16T00:47:14.012Z,10.19
2019-03-16T00:49:43.249Z,10.14
2019-03-16T00:52:12.490Z,10.17
2019-03-16T00:54:41.745Z,10.20
2019-03-16T00:57:10.993Z,10.26
2019-03-16T00:59:40.248Z,10.29
2019-03-16T01:02:09.475Z,10.32
2019-03-16T01:04:38.740Z,10.35
2019-03-16T01:07:07.993Z,10.37
2019-03-16T01:09:37.228Z,10.39
2019-03-16T01:12:06.513Z,10.39
2019-03-16T01:14:35.754Z,10.36
2019-03-16T01:17:05.011Z,10.30
2019-03-16T01:19:34.264Z,10.28
2019-03-16T01:22:03.511Z,10.23
2019-03-16T01:24:32.752Z,10.23
2019-03-16T01:27:02.015Z,10.24
2019-03-16T01:29:31.274Z,10.22
2019-03-16T01:32:14.804Z,10.21
2019-03-16T01:34:44.570Z,10.21
2019-03-16T01:37:13.810Z,10.17
2019-03-16T01:39:43.077Z,10.12
2019-03-16T01:42:12.351Z,10.10
2019-03-16T01:44:41.620Z,10.04
2019-03-16T01:47:10.868Z,10.04
2019-03-16T01:49:40.108Z,10.03
2019-03-16T01:52:09.382Z,10.02
2019-03-16T01:54:38.623Z,10.01
2019-03-16T01:57:07.932Z,10.01
2019-03-16T01:59:37.210Z,9.98
2019-03-16T02:02:06.582Z,10.01
2019-03-16T02:04:35.834Z,10.02
2019-03-16T02:07:05.084Z,10.00
2019-03-16T02:09:34.313Z,9.98
2019-03-16T02:12:03.663Z,10.00
2019-03-16T02:14:32.892Z,10.00
2019-03-16T02:17:02.254Z,10.01
2019-03-16T02:19:31.509Z,10.01
2019-03-16T02:22:00.754Z,9.96
2019-03-16T02:24:30.057Z,9.96
2019-03-16T02:26:59.287Z,9.96
2019-03-16T02:29:28.544Z,9.94
2019-03-16T02:31:57.799Z,9.94
2019-03-16T02:34:27.045Z,9.94
2019-03-16T02:36:56.316Z,9.98
2019-03-16T02:39:25.591Z,9.96
2019-03-16T02:41:54.847Z,9.97
2019-03-16T02:44:24.140Z,10.01
2019-03-16T02:46:53.412Z,10.01
2019-03-16T02:49:22.728Z,10.03
2019-03-16T02:51:51.987Z,10.04
2019-03-16T02:54:21.262Z,10.08
2019-03-16T02:56:50.498Z,10.07
2019-03-16T02:59:19.763Z,10.07
2019-03-16T03:01:49.935Z,10.05
2019-03-16T03:04:19.227Z,9.97
2019-03-16T03:06:48.472Z,9.64
2019-03-16T03:09:17.741Z,8.95
2019-03-16T03:11:46.992Z,8.93
2019-03-16T03:14:16.289Z,8.44
2019-03-16T03:16:45.578Z,8.51
2019-03-16T03:19:14.866Z,8.22
2019-03-16T03:21:44.138Z,8.04
2019-03-16T03:24:13.370Z,8.04
2019-03-16T03:26:42.646Z,7.92
2019-03-16T03:29:11.891Z,7.99
2019-03-16T03:31:41.123Z,7.98
2019-03-16T03:34:10.386Z,7.81
2019-03-16T03:36:39.623Z,7.77
2019-03-16T03:39:09.193Z,7.77
2019-03-16T03:41:38.538Z,7.69
2019-03-16T03:44:07.889Z,7.79
2019-03-16T03:46:37.143Z,7.82
2019-03-16T03:49:06.390Z,7.82
2019-03-16T03:51:35.662Z,7.67
2019-03-16T03:54:04.888Z,7.73
2019-03-16T03:56:34.125Z,7.34
2019-03-16T03:59:03.379Z,7.26
2019-03-16T04:01:32.760Z,7.25
2019-03-16T04:04:14.951Z,7.27
2019-03-16T04:06:32.923Z,7.23
2019-03-16T04:09:02.164Z,7.10
2019-03-16T04:11:31.413Z,7.07
2019-03-16T04:14:00.681Z,6.98
2019-03-16T04:16:46.684Z,7.18
2019-03-16T04:19:15.958Z,7.17
2019-03-16T04:21:45.197Z,7.14
2019-03-16T04:24:14.426Z,7.04
2019-03-16T04:26:43.791Z,6.94
2019-03-16T04:29:13.064Z,7.04
2019-03-16T04:31:42.304Z,7.06
2019-03-16T04:34:11.557Z,7.03
2019-03-16T04:36:40.826Z,7.02
2019-03-16T04:39:10.094Z,6.99
2019-03-16T04:41:39.368Z,6.97
2019-03-16T04:44:08.603Z,7.08
2019-03-16T04:46:37.889Z,6.85
2019-03-16T04:49:07.131Z,7.03
2019-03-16T04:51:36.377Z,6.95
2019-03-16T04:54:05.754Z,6.86
2019-03-16T04:56:35.030Z,6.97
2019-03-16T04:59:04.302Z,6.86
2019-03-16T05:01:33.534Z,7.05
2019-03-16T05:04:02.785Z,7.00
2019-03-16T05:06:32.035Z,6.91
2019-03-16T05:09:01.278Z,6.69
2019-03-16T05:11:30.534Z,6.86
2019-03-16T05:13:59.803Z,6.76
2019-03-16T05:16:29.046Z,7.10
2019-03-16T05:18:58.303Z,7.01
2019-03-16T05:21:27.532Z,6.96
2019-03-16T05:23:56.795Z,6.84
2019-03-16T05:26:26.051Z,6.85
2019-03-16T05:28:55.278Z,6.94
2019-03-16T05:31:24.530Z,7.14
2019-03-16T05:33:53.797Z,7.02
2019-03-16T05:36:23.061Z,6.96
2019-03-16T05:38:52.332Z,7.19
2019-03-16T05:41:21.616Z,7.02
2019-03-16T05:43:50.846Z,6.85
2019-03-16T05:46:20.086Z,6.98
2019-03-16T05:48:49.348Z,6.93
2019-03-16T05:51:18.609Z,7.17
2019-03-16T05:53:47.850Z,7.02
2019-03-16T05:56:17.105Z,7.04
2019-03-16T05:58:46.356Z,7.08
2019-03-16T06:01:15.649Z,7.03
2019-03-16T06:03:44.882Z,6.94
2019-03-16T06:06:14.174Z,6.94
2019-03-16T06:08:43.414Z,6.99
2019-03-16T06:11:12.646Z,6.96
2019-03-16T06:13:41.920Z,6.98
2019-03-16T06:16:11.153Z,6.93
2019-03-16T06:18:40.413Z,7.21
2019-03-16T06:21:09.649Z,7.10
2019-03-16T06:23:38.929Z,7.04
2019-03-16T06:26:08.186Z,6.84
2019-03-16T06:28:37.421Z,7.03
2019-03-16T06:31:06.679Z,7.07
2019-03-16T06:33:35.934Z,7.12
2019-03-16T06:36:05.184Z,6.98
2019-03-16T06:38:34.441Z,6.97
2019-03-16T06:41:03.733Z,7.04
2019-03-16T06:43:32.971Z,7.07
2019-03-16T06:46:02.205Z,7.16
2019-03-16T06:48:31.463Z,7.04
2019-03-16T06:51:00.698Z,7.07
2019-03-16T06:53:29.975Z,7.16
2019-03-16T06:55:59.252Z,6.99
2019-03-16T06:58:28.501Z,7.03
2019-03-16T07:00:57.740Z,6.96
2019-03-16T07:03:26.988Z,7.11
2019-03-16T07:05:56.237Z,7.16
2019-03-16T07:08:25.485Z,7.20
2019-03-16T07:10:54.741Z,7.25
2019-03-16T07:13:23.974Z,7.11
2019-03-16T07:15:53.241Z,7.15
2019-03-16T07:18:22.473Z,7.20
2019-03-16T07:20:51.742Z,7.20
2019-03-16T07:23:21.053Z,7.13
2019-03-16T07:25:50.311Z,7.28
2019-03-16T07:28:19.553Z,7.32
2019-03-16T07:30:48.797Z,7.41
2019-03-16T07:33:18.077Z,7.43
2019-03-16T07:35:47.317Z,7.48
2019-03-16T07:38:16.558Z,7.53
2019-03-16T07:40:45.834Z,7.58
2019-03-16T07:43:15.077Z,7.66
2019-03-16T07:45:44.326Z,7.81
2019-03-16T07:48:13.632Z,8.14
2019-03-16T07:50:42.874Z,8.31
2019-03-16T07:53:12.172Z,8.53
2019-03-16T07:55:42.416Z,8.85
2019-03-16T07:58:11.701Z,9.03
2019-03-16T08:00:40.941Z,9.13
2019-03-16T08:03:10.205Z,9.22
2019-03-16T08:05:39.444Z,9.27
2019-03-16T08:08:08.682Z,9.26
2019-03-16T08:10:37.951Z,9.29
2019-03-16T08:13:07.188Z,9.34
2019-03-16T08:15:36.467Z,9.33
2019-03-16T08:18:07.857Z,9.34
2019-03-16T08:20:36.714Z,9.37
2019-03-16T08:23:05.936Z,9.42
2019-03-16T08:25:35.246Z,9.45
2019-03-16T08:28:04.502Z,9.42
2019-03-16T08:30:33.733Z,9.46
2019-03-16T08:33:02.988Z,9.41
2019-03-16T08:35:32.213Z,9.54
2019-03-16T08:38:01.478Z,9.53
2019-03-16T08:40:30.712Z,9.53
2019-03-16T08:42:59.972Z,9.56
2019-03-16T08:45:29.257Z,9.60
2019-03-16T08:47:58.597Z,9.58
2019-03-16T08:50:27.851Z,9.57
2019-03-16T08:53:00.092Z,9.58
2019-03-16T08:55:29.340Z,9.54
2019-03-16T08:58:06.037Z,9.59
2019-03-16T09:00:29.606Z,9.58
2019-03-16T09:02:58.880Z,9.61
2019-03-16T09:05:28.102Z,9.68
2019-03-16T09:07:57.367Z,9.67
2019-03-16T09:10:26.582Z,9.70
2019-03-16T09:12:55.848Z,9.73
2019-03-16T09:15:25.077Z,9.83
2019-03-16T09:17:54.325Z,9.84
2019-03-16T09:20:23.554Z,9.85
2019-03-16T09:22:52.808Z,9.83
2019-03-16T09:25:22.071Z,9.85
2019-03-16T09:27:51.304Z,9.87
2019-03-16T09:30:20.562Z,9.88
2019-03-16T09:32:49.796Z,9.84
2019-03-16T09:35:19.054Z,9.86
2019-03-16T09:37:48.294Z,9.87
2019-03-16T09:40:17.608Z,9.84
2019-03-16T09:42:46.826Z,9.82
2019-03-16T09:45:16.087Z,9.84
2019-03-16T09:47:45.331Z,9.80
2019-03-16T09:50:14.865Z,9.81
2019-03-16T09:52:44.129Z,9.77
2019-03-16T09:55:13.465Z,9.80
2019-03-16T09:57:42.804Z,9.77
2019-03-16T10:00:12.826Z,9.75
2019-03-16T10:02:42.080Z,9.72
2019-03-16T10:05:11.310Z,9.70
2019-03-16T10:07:40.570Z,9.71
2019-03-16T10:10:10.131Z,9.63
2019-03-16T10:12:39.367Z,9.55
2019-03-16T10:15:08.825Z,9.54
2019-03-16T10:17:38.221Z,9.45
2019-03-16T10:20:08.314Z,9.48
2019-03-16T10:22:37.612Z,9.47
2019-03-16T10:25:06.865Z,9.49
2019-03-16T10:27:36.143Z,9.52
2019-03-16T10:30:06.324Z,9.54
2019-03-16T10:32:35.652Z,9.51
2019-03-16T10:35:05.231Z,9.43
2019-03-16T10:37:34.493Z,9.44
2019-03-16T10:40:03.754Z,9.37
2019-03-16T10:42:33.097Z,9.31
2019-03-16T10:45:02.373Z,9.28
2019-03-16T10:47:31.649Z,9.19
2019-03-16T10:50:00.908Z,9.15
2019-03-16T10:52:30.140Z,9.16
2019-03-16T10:54:59.397Z,9.15
2019-03-16T10:57:28.668Z,9.16
2019-03-16T10:59:57.932Z,9.23
2019-03-16T11:02:27.177Z,9.22
2019-03-16T11:04:56.432Z,9.34
2019-03-16T11:07:25.691Z,9.42
2019-03-16T11:09:54.933Z,9.57
2019-03-16T11:12:24.222Z,9.60
2019-03-16T11:14:53.467Z,9.75
2019-03-16T11:17:22.726Z,9.76
2019-03-16T11:19:51.962Z,9.89
2019-03-16T11:22:21.230Z,9.94
2019-03-16T11:24:50.465Z,9.97
2019-03-16T11:27:19.699Z,9.95
2019-03-16T11:29:48.976Z,10.09
2019-03-16T11:32:18.219Z,10.22
2019-03-16T11:34:47.482Z,10.34
2019-03-16T11:37:16.714Z,10.39
2019-03-16T11:39:45.990Z,10.51
2019-03-16T11:42:15.239Z,10.51
2019-03-16T11:44:44.541Z,10.56
2019-03-16T11:47:13.779Z,10.53
2019-03-16T11:49:43.005Z,10.57
2019-03-16T11:52:12.266Z,10.50
2019-03-16T11:54:41.514Z,10.54
2019-03-16T11:57:10.767Z,10.53
2019-03-16T11:59:40.016Z,10.60
2019-03-16T12:02:09.300Z,10.61
2019-03-16T12:04:38.583Z,10.52
2019-03-16T12:07:07.826Z,10.41
2019-03-16T12:09:37.135Z,10.44
2019-03-16T12:12:06.348Z,10.45
2019-03-16T12:14:35.612Z,10.48
2019-03-16T12:17:04.854Z,10.48
2019-03-16T12:19:34.112Z,10.43
2019-03-16T12:22:03.348Z,10.32
2019-03-16T12:24:32.621Z,10.30
2019-03-16T12:27:01.986Z,10.28
2019-03-16T12:29:34.335Z,10.33
2019-03-16T12:32:02.201Z,10.44
2019-03-16T12:34:31.439Z,10.42
2019-03-16T12:37:00.702Z,10.45
2019-03-16T12:39:29.955Z,10.55
2019-03-16T12:41:59.222Z,10.52
2019-03-16T12:44:28.518Z,10.46
2019-03-16T12:46:57.778Z,10.51
2019-03-16T12:49:27.020Z,10.50
2019-03-16T12:51:56.255Z,10.52
2019-03-16T12:54:25.516Z,10.56
2019-03-16T12:56:54.762Z,10.53
2019-03-16T12:59:24.020Z,10.67
2019-03-16T13:01:53.316Z,10.61
2019-03-16T13:04:22.575Z,10.63
2019-03-16T13:06:51.814Z,10.67
2019-03-16T13:09:21.082Z,10.71
2019-03-16T13:11:50.345Z,10.77
2019-03-16T13:14:19.609Z,10.85
2019-03-16T13:16:48.904Z,11.02
2019-03-16T13:19:18.148Z,11.47
2019-03-16T13:21:47.408Z,11.62
2019-03-16T13:24:16.655Z,11.60
2019-03-16T13:26:45.927Z,11.61
2019-03-16T13:29:15.252Z,11.79
2019-03-16T13:31:44.515Z,11.89
2019-03-16T13:34:13.792Z,11.62
2019-03-16T13:36:43.054Z,11.46
2019-03-16T13:39:12.380Z,11.33
2019-03-16T13:41:41.625Z,11.27
2019-03-16T13:44:10.900Z,11.26
2019-03-16T13:46:40.236Z,11.30
2019-03-16T13:49:09.513Z,11.25
2019-03-16T13:51:38.763Z,11.24
2019-03-16T13:54:08.035Z,11.26
2019-03-16T13:56:37.340Z,11.29
2019-03-16T13:59:06.587Z,11.34
2019-03-16T14:01:35.955Z,11.50
2019-03-16T14:04:05.330Z,11.71
2019-03-16T14:06:34.630Z,12.03
2019-03-16T14:09:04.601Z,12.11
2019-03-16T14:11:33.912Z,12.57
2019-03-16T14:14:03.254Z,12.32
2019-03-16T14:16:32.495Z,12.13
2019-03-16T14:19:01.964Z,12.28
2019-03-16T14:21:31.214Z,12.22
2019-03-16T14:24:00.479Z,12.32
2019-03-16T14:26:29.731Z,12.26
2019-03-16T14:29:01.879Z,12.01
2019-03-16T14:31:31.140Z,11.88
2019-03-16T14:34:00.372Z,11.79
2019-03-16T14:36:29.629Z,11.81
2019-03-16T14:38:58.861Z,11.80
2019-03-16T14:41:30.104Z,11.79
2019-03-16T14:43:59.531Z,11.69
2019-03-16T14:46:28.819Z,11.56
2019-03-16T14:48:58.101Z,11.59
2019-03-16T14:51:27.341Z,11.65
2019-03-16T14:53:56.651Z,11.83
2019-03-16T14:56:25.886Z,11.81
2019-03-16T14:58:55.156Z,11.82
2019-03-16T15:01:24.402Z,11.83
2019-03-16T15:03:53.639Z,11.83
2019-03-16T15:06:22.931Z,11.92
2019-03-16T15:08:52.170Z,12.03
2019-03-16T15:11:21.454Z,12.06
2019-03-16T15:13:50.697Z,12.04
2019-03-16T15:16:19.957Z,12.10
2019-03-16T15:18:49.192Z,12.12
2019-03-16T15:21:18.452Z,12.06
2019-03-16T15:23:47.689Z,12.12
2019-03-16T15:26:16.955Z,11.93
2019-03-16T15:28:46.187Z,11.87
2019-03-16T15:31:15.439Z,11.84
2019-03-16T15:33:44.831Z,11.85
2019-03-16T15:36:14.072Z,11.85
2019-03-16T15:38:43.343Z,11.75
2019-03-16T15:41:12.581Z,11.71
2019-03-16T15:43:41.871Z,11.71
2019-03-16T15:46:11.107Z,11.63
2019-03-16T15:48:40.395Z,11.54
2019-03-16T15:51:09.637Z,11.51
2019-03-16T15:53:38.897Z,11.45
2019-03-16T15:56:08.141Z,11.48
2019-03-16T15:58:37.382Z,11.47
2019-03-16T16:01:06.638Z,11.50
2019-03-16T16:03:35.885Z,11.48
2019-03-16T16:06:05.163Z,11.51
2019-03-16T16:08:34.434Z,11.46
2019-03-16T16:11:03.693Z,11.45
2019-03-16T16:13:32.940Z,11.42
2019-03-16T16:16:02.210Z,11.37
2019-03-16T16:18:31.443Z,11.47
2019-03-16T16:21:00.740Z,11.46
2019-03-16T16:23:29.974Z,11.45
2019-03-16T16:25:59.227Z,11.45
2019-03-16T16:28:28.550Z,11.47
2019-03-16T16:30:57.781Z,11.54
2019-03-16T16:33:27.071Z,11.34
2019-03-16T16:35:56.318Z,11.47
2019-03-16T16:38:25.587Z,11.55
2019-03-16T16:40:54.840Z,11.42
2019-03-16T16:43:24.070Z,11.27
2019-03-16T16:45:53.326Z,11.23
2019-03-16T16:48:22.597Z,11.22
2019-03-16T16:50:51.869Z,11.21
2019-03-16T16:53:21.140Z,11.09
2019-03-16T16:55:50.479Z,11.10
2019-03-16T16:58:19.777Z,11.04
2019-03-16T17:00:49.030Z,11.01
2019-03-16T17:03:18.303Z,10.99
2019-03-16T17:05:47.583Z,10.97
2019-03-16T17:08:16.854Z,11.02
2019-03-16T17:10:46.111Z,10.97
2019-03-16T17:13:15.370Z,11.02
2019-03-16T17:15:44.614Z,10.98
2019-03-16T17:18:13.854Z,10.96
2019-03-16T17:20:43.159Z,10.94
2019-03-16T17:23:12.390Z,10.90
2019-03-16T17:25:41.742Z,10.84
2019-03-16T17:28:11.047Z,10.87
2019-03-16T17:30:40.328Z,10.62
2019-03-16T17:33:09.591Z,10.67
2019-03-16T17:35:38.823Z,10.64
2019-03-16T17:38:08.083Z,10.58
2019-03-16T17:40:37.368Z,10.60
2019-03-16T17:43:06.625Z,10.54
2019-03-16T17:45:35.860Z,10.46
2019-03-16T17:48:05.123Z,10.29
2019-03-16T17:50:34.400Z,10.40
2019-03-16T17:53:03.645Z,10.38
2019-03-16T17:55:32.892Z,10.26
2019-03-16T17:58:02.152Z,10.33
2019-03-16T18:00:31.384Z,10.26
2019-03-16T18:03:00.683Z,10.16
2019-03-16T18:05:29.959Z,10.23
2019-03-16T18:07:59.223Z,10.22
2019-03-16T18:10:30.523Z,10.02
2019-03-16T18:12:59.797Z,9.81
2019-03-16T18:15:29.112Z,9.85
2019-03-16T18:17:58.370Z,9.63
2019-03-16T18:20:27.682Z,9.48
2019-03-16T18:22:56.967Z,9.39
2019-03-16T18:25:26.279Z,9.40
2019-03-16T18:27:55.649Z,9.34
2019-03-16T18:30:24.990Z,9.30
2019-03-16T18:32:54.228Z,9.23
2019-03-16T18:35:23.751Z,9.17
2019-03-16T18:37:53.072Z,9.10
2019-03-16T18:40:22.381Z,9.07
2019-03-16T18:42:51.690Z,9.00
2019-03-16T18:45:21.042Z,8.93
2019-03-16T18:47:50.321Z,8.86
2019-03-16T18:50:20.498Z,8.81
2019-03-16T18:52:49.765Z,8.74
2019-03-16T18:55:19.077Z,8.73
2019-03-16T18:57:48.373Z,8.78
2019-03-16T19:00:17.774Z,8.89
2019-03-16T19:02:47.094Z,8.92
2019-03-16T19:05:16.406Z,9.07
2019-03-16T19:07:45.662Z,9.06
2019-03-16T19:10:15.764Z,8.95
2019-03-16T19:12:45.228Z,8.75
2019-03-16T19:15:14.887Z,8.72
2019-03-16T19:17:57.580Z,8.70
2019-03-16T19:20:15.801Z,8.61
2019-03-16T19:22:45.236Z,8.56
2019-03-16T19:25:14.762Z,8.44
2019-03-16T19:27:45.206Z,8.55
2019-03-16T19:30:15.021Z,8.79
2019-03-16T19:32:44.423Z,8.72
2019-03-16T19:35:13.675Z,8.56
2019-03-16T19:37:42.909Z,8.66
2019-03-16T19:40:12.686Z,8.90
2019-03-16T19:42:41.971Z,8.81
2019-03-16T19:45:11.714Z,8.61
2019-03-16T19:47:41.759Z,8.59
2019-03-16T19:50:11.350Z,8.57
2019-03-16T19:52:40.632Z,8.63
2019-03-16T19:55:10.258Z,8.60
2019-03-16T19:57:39.796Z,8.68
2019-03-16T20:00:10.584Z,8.76
2019-03-16T20:02:47.354Z,8.82
2019-03-16T20:05:10.988Z,8.93
2019-03-16T20:07:40.268Z,8.89
2019-03-16T20:10:11.321Z,8.96
2019-03-16T20:12:40.572Z,8.86
2019-03-16T20:15:10.145Z,8.79
2019-03-16T20:17:39.433Z,8.79
2019-03-16T20:20:09.556Z,8.76
2019-03-16T20:22:38.852Z,8.78
2019-03-16T20:25:08.214Z,8.65
2019-03-16T20:27:39.299Z,8.71
2019-03-16T20:30:09.424Z,8.64
2019-03-16T20:32:39.730Z,8.57
2019-03-16T20:35:09.311Z,8.60
2019-03-16T20:37:38.713Z,8.57
2019-03-16T20:40:08.872Z,8.60
2019-03-16T20:42:38.219Z,8.48
2019-03-16T20:45:07.650Z,8.35
2019-03-16T20:47:36.971Z,8.24
2019-03-16T20:50:06.967Z,8.24
2019-03-16T20:52:36.261Z,8.23
2019-03-16T20:55:06.075Z,8.13
2019-03-16T20:57:35.653Z,8.17
2019-03-16T21:00:05.647Z,8.10
2019-03-16T21:02:34.928Z,8.05
2019-03-16T21:05:04.362Z,8.02
2019-03-16T21:07:33.634Z,7.92
2019-03-16T21:10:02.974Z,7.83
2019-03-16T21:12:32.303Z,7.86
2019-03-16T21:15:01.566Z,7.79
2019-03-16T21:17:30.818Z,7.66
2019-03-16T21:20:00.066Z,7.67
2019-03-16T21:22:36.281Z,7.64
2019-03-16T21:25:00.438Z,7.63
2019-03-16T21:27:29.689Z,7.53
2019-03-16T21:29:58.940Z,7.47
2019-03-16T21:32:28.168Z,7.39
2019-03-16T21:34:57.453Z,7.35
2019-03-16T21:37:26.718Z,7.53
2019-03-16T21:39:55.974Z,7.29
2019-03-16T21:42:25.261Z,7.19
2019-03-16T21:44:54.618Z,7.15
2019-03-16T21:47:23.860Z,7.11
2019-03-16T21:49:53.099Z,7.10
2019-03-16T21:52:22.376Z,7.12
2019-03-16T21:54:51.637Z,6.99
2019-03-16T21:57:20.971Z,6.92
2019-03-16T21:59:50.201Z,6.81
2019-03-16T22:02:19.461Z,6.78
2019-03-16T22:04:48.695Z,6.81
2019-03-16T22:07:17.943Z,6.75
2019-03-16T22:09:47.189Z,6.78
2019-03-16T22:12:16.451Z,6.70
2019-03-16T22:14:45.756Z,6.67
2019-03-16T22:17:14.996Z,6.42
2019-03-16T22:19:44.252Z,6.32
2019-03-16T22:22:13.484Z,6.25
2019-03-16T22:24:42.750Z,6.20
2019-03-16T22:27:12.007Z,6.20
2019-03-16T22:29:41.240Z,6.24
2019-03-16T22:32:10.535Z,6.06
2019-03-16T22:34:39.785Z,6.04
2019-03-16T22:37:09.043Z,6.04
2019-03-16T22:39:38.267Z,6.09
2019-03-16T22:42:07.520Z,6.09
2019-03-16T22:44:36.924Z,6.14
2019-03-16T22:47:06.291Z,6.05
2019-03-16T22:49:35.530Z,6.07
2019-03-16T22:52:04.771Z,5.99
2019-03-16T22:54:34.025Z,5.90
2019-03-16T22:57:03.257Z,5.82
2019-03-16T22:59:32.521Z,5.88
2019-03-16T23:02:01.762Z,5.87
2019-03-16T23:04:31.013Z,5.87
2019-03-16T23:07:00.249Z,5.89
2019-03-16T23:09:29.615Z,5.78
2019-03-16T23:11:58.879Z,5.68
2019-03-16T23:14:28.149Z,5.49
2019-03-16T23:16:57.470Z,5.57
2019-03-16T23:19:26.699Z,5.51
2019-03-16T23:21:55.950Z,5.64
2019-03-16T23:24:25.181Z,5.55
2019-03-16T23:26:54.464Z,5.43
2019-03-16T23:29:23.694Z,5.28
2019-03-16T23:31:52.968Z,5.23
2019-03-16T23:34:22.234Z,5.15
2019-03-16T23:36:51.471Z,5.11
2019-03-16T23:39:20.738Z,5.27
2019-03-16T23:41:49.977Z,5.28
2019-03-16T23:44:19.252Z,5.39
2019-03-16T23:46:48.559Z,5.28
2019-03-16T23:49:17.830Z,5.18
2019-03-16T23:51:47.087Z,5.23
2019-03-16T23:54:16.320Z,5.18
2019-03-16T23:56:45.596Z,5.08
2019-03-16T23:59:14.830Z,5.03
